sensor_id;sensor_type;location;lat;lon;timestamp;P1;durP1;ratioP1;P2;durP2;ratioP2
66546;SDS011;53400;50.364;14.874;2023-06-19T00:00:44;17.70;;;14.40;;
66546;SDS011;53400;50.364;14.874;2023-06-19T00:03:30;19.27;;;15.90;;
66546;SDS011;53400;50.364;14.874;2023-06-19T00:05:56;19.40;;;16.55;;
66546;SDS011;53400;50.364;14.874;2023-06-19T00:08:22;18.23;;;15.30;;
66546;SDS011;53400;50.364;14.874;2023-06-19T00:10:51;17.83;;;15.93;;
66546;SDS011;53400;50.364;14.874;2023-06-19T00:13:16;19.15;;;15.63;;
66546;SDS011;53400;50.364;14.874;2023-06-19T00:15:47;19.58;;;16.15;;
66546;SDS011;53400;50.364;14.874;2023-06-19T00:18:13;18.58;;;15.82;;
66546;SDS011;53400;50.364;14.874;2023-06-19T00:20:42;19.75;;;15.90;;
66546;SDS011;53400;50.364;14.874;2023-06-19T00:23:11;20.50;;;16.05;;
66546;SDS011;53400;50.364;14.874;2023-06-19T00:25:41;19.70;;;15.88;;
66546;SDS011;53400;50.364;14.874;2023-06-19T00:28:10;17.27;;;15.25;;
66546;SDS011;53400;50.364;14.874;2023-06-19T00:30:40;19.77;;;15.35;;
66546;SDS011;53400;50.364;14.874;2023-06-19T00:33:07;21.85;;;17.95;;
66546;SDS011;53400;50.364;14.874;2023-06-19T00:35:34;23.13;;;17.60;;
66546;SDS011;53400;50.364;14.874;2023-06-19T00:38:00;20.58;;;17.08;;
66546;SDS011;53400;50.364;14.874;2023-06-19T00:40:28;22.00;;;16.42;;
66546;SDS011;53400;50.364;14.874;2023-06-19T00:42:55;19.38;;;16.23;;
66546;SDS011;53400;50.364;14.874;2023-06-19T00:45:24;20.17;;;16.13;;
66546;SDS011;53400;50.364;14.874;2023-06-19T00:47:51;21.15;;;16.00;;
66546;SDS011;53400;50.364;14.874;2023-06-19T00:50:18;20.67;;;17.02;;
66546;SDS011;53400;50.364;14.874;2023-06-19T00:52:45;19.08;;;15.88;;
66546;SDS011;53400;50.364;14.874;2023-06-19T00:55:11;18.48;;;16.35;;
66546;SDS011;53400;50.364;14.874;2023-06-19T00:57:38;20.70;;;16.48;;
66546;SDS011;53400;50.364;14.874;2023-06-19T01:00:06;19.92;;;16.08;;
66546;SDS011;53400;50.364;14.874;2023-06-19T01:02:34;19.70;;;16.15;;
66546;SDS011;53400;50.364;14.874;2023-06-19T01:05:02;18.55;;;15.48;;
66546;SDS011;53400;50.364;14.874;2023-06-19T01:07:30;17.35;;;15.05;;
66546;SDS011;53400;50.364;14.874;2023-06-19T01:10:07;20.10;;;15.55;;
66546;SDS011;53400;50.364;14.874;2023-06-19T01:12:37;19.60;;;15.50;;
66546;SDS011;53400;50.364;14.874;2023-06-19T01:15:07;18.15;;;14.93;;
66546;SDS011;53400;50.364;14.874;2023-06-19T01:17:35;18.98;;;15.50;;
66546;SDS011;53400;50.364;14.874;2023-06-19T01:20:04;19.75;;;16.15;;
66546;SDS011;53400;50.364;14.874;2023-06-19T01:22:37;21.73;;;16.20;;
66546;SDS011;53400;50.364;14.874;2023-06-19T01:25:04;18.40;;;16.15;;
66546;SDS011;53400;50.364;14.874;2023-06-19T01:27:31;20.60;;;17.35;;
66546;SDS011;53400;50.364;14.874;2023-06-19T01:29:59;21.10;;;16.52;;
66546;SDS011;53400;50.364;14.874;2023-06-19T01:32:31;19.60;;;16.92;;
66546;SDS011;53400;50.364;14.874;2023-06-19T01:35:02;23.30;;;16.98;;
66546;SDS011;53400;50.364;14.874;2023-06-19T01:37:29;19.50;;;15.88;;
66546;SDS011;53400;50.364;14.874;2023-06-19T01:40:00;20.45;;;16.35;;
66546;SDS011;53400;50.364;14.874;2023-06-19T01:42:29;17.75;;;14.70;;
66546;SDS011;53400;50.364;14.874;2023-06-19T01:44:57;19.40;;;14.57;;
66546;SDS011;53400;50.364;14.874;2023-06-19T01:47:23;16.95;;;14.02;;
66546;SDS011;53400;50.364;14.874;2023-06-19T01:49:49;17.40;;;14.13;;
66546;SDS011;53400;50.364;14.874;2023-06-19T01:52:16;17.98;;;14.90;;
66546;SDS011;53400;50.364;14.874;2023-06-19T01:54:42;18.02;;;14.40;;
66546;SDS011;53400;50.364;14.874;2023-06-19T01:57:10;16.90;;;14.82;;
66546;SDS011;53400;50.364;14.874;2023-06-19T01:59:37;16.25;;;13.57;;
66546;SDS011;53400;50.364;14.874;2023-06-19T02:02:03;15.70;;;12.88;;
66546;SDS011;53400;50.364;14.874;2023-06-19T02:04:29;15.90;;;13.07;;
66546;SDS011;53400;50.364;14.874;2023-06-19T02:06:55;18.98;;;14.95;;
66546;SDS011;53400;50.364;14.874;2023-06-19T02:09:22;18.10;;;15.40;;
66546;SDS011;53400;50.364;14.874;2023-06-19T02:11:48;18.10;;;15.63;;
66546;SDS011;53400;50.364;14.874;2023-06-19T02:14:15;18.92;;;15.93;;
66546;SDS011;53400;50.364;14.874;2023-06-19T02:16:41;19.33;;;15.60;;
66546;SDS011;53400;50.364;14.874;2023-06-19T02:19:09;18.35;;;14.85;;
66546;SDS011;53400;50.364;14.874;2023-06-19T02:21:35;18.67;;;15.85;;
66546;SDS011;53400;50.364;14.874;2023-06-19T02:24:02;19.85;;;16.75;;
66546;SDS011;53400;50.364;14.874;2023-06-19T02:26:29;20.13;;;17.02;;
66546;SDS011;53400;50.364;14.874;2023-06-19T02:28:56;18.92;;;16.20;;
66546;SDS011;53400;50.364;14.874;2023-06-19T02:31:23;20.13;;;16.58;;
66546;SDS011;53400;50.364;14.874;2023-06-19T02:33:50;22.83;;;17.83;;
66546;SDS011;53400;50.364;14.874;2023-06-19T02:36:16;21.55;;;16.95;;
66546;SDS011;53400;50.364;14.874;2023-06-19T02:38:46;22.30;;;17.08;;
66546;SDS011;53400;50.364;14.874;2023-06-19T02:41:12;21.67;;;17.60;;
66546;SDS011;53400;50.364;14.874;2023-06-19T02:43:39;22.70;;;17.55;;
66546;SDS011;53400;50.364;14.874;2023-06-19T02:46:06;21.42;;;17.42;;
66546;SDS011;53400;50.364;14.874;2023-06-19T02:48:33;19.02;;;16.42;;
66546;SDS011;53400;50.364;14.874;2023-06-19T02:51:00;21.10;;;16.90;;
66546;SDS011;53400;50.364;14.874;2023-06-19T02:53:26;19.73;;;16.42;;
66546;SDS011;53400;50.364;14.874;2023-06-19T02:55:52;21.48;;;16.48;;
66546;SDS011;53400;50.364;14.874;2023-06-19T02:58:18;18.95;;;15.60;;
66546;SDS011;53400;50.364;14.874;2023-06-19T03:00:45;19.58;;;15.60;;
66546;SDS011;53400;50.364;14.874;2023-06-19T03:03:11;21.73;;;16.52;;
66546;SDS011;53400;50.364;14.874;2023-06-19T03:05:39;19.08;;;15.82;;
66546;SDS011;53400;50.364;14.874;2023-06-19T03:08:05;21.00;;;16.13;;
66546;SDS011;53400;50.364;14.874;2023-06-19T03:10:32;22.48;;;16.52;;
66546;SDS011;53400;50.364;14.874;2023-06-19T03:12:59;20.17;;;15.50;;
66546;SDS011;53400;50.364;14.874;2023-06-19T03:15:26;18.20;;;16.30;;
66546;SDS011;53400;50.364;14.874;2023-06-19T03:17:52;19.45;;;16.00;;
66546;SDS011;53400;50.364;14.874;2023-06-19T03:20:19;19.77;;;16.75;;
66546;SDS011;53400;50.364;14.874;2023-06-19T03:22:47;20.00;;;16.92;;
66546;SDS011;53400;50.364;14.874;2023-06-19T03:25:13;22.27;;;16.67;;
66546;SDS011;53400;50.364;14.874;2023-06-19T03:27:40;22.52;;;16.35;;
66546;SDS011;53400;50.364;14.874;2023-06-19T03:30:06;19.75;;;15.32;;
66546;SDS011;53400;50.364;14.874;2023-06-19T03:32:34;20.83;;;15.77;;
66546;SDS011;53400;50.364;14.874;2023-06-19T03:35:00;17.70;;;15.00;;
66546;SDS011;53400;50.364;14.874;2023-06-19T03:37:27;18.92;;;14.30;;
66546;SDS011;53400;50.364;14.874;2023-06-19T03:39:55;16.95;;;13.82;;
66546;SDS011;53400;50.364;14.874;2023-06-19T03:42:23;18.20;;;14.32;;
66546;SDS011;53400;50.364;14.874;2023-06-19T03:44:49;17.08;;;13.77;;
66546;SDS011;53400;50.364;14.874;2023-06-19T03:47:16;17.13;;;13.63;;
66546;SDS011;53400;50.364;14.874;2023-06-19T03:49:42;15.80;;;13.05;;
66546;SDS011;53400;50.364;14.874;2023-06-19T03:52:09;16.42;;;12.70;;
66546;SDS011;53400;50.364;14.874;2023-06-19T03:54:35;17.17;;;12.52;;
66546;SDS011;53400;50.364;14.874;2023-06-19T03:57:03;18.27;;;13.55;;
66546;SDS011;53400;50.364;14.874;2023-06-19T03:59:29;14.88;;;12.10;;
66546;SDS011;53400;50.364;14.874;2023-06-19T04:01:56;16.50;;;12.52;;
66546;SDS011;53400;50.364;14.874;2023-06-19T04:04:22;14.98;;;12.30;;
66546;SDS011;53400;50.364;14.874;2023-06-19T04:06:48;15.70;;;13.07;;
66546;SDS011;53400;50.364;14.874;2023-06-19T04:09:15;15.82;;;12.98;;
66546;SDS011;53400;50.364;14.874;2023-06-19T04:11:43;17.90;;;12.95;;
66546;SDS011;53400;50.364;14.874;2023-06-19T04:14:11;16.65;;;13.30;;
66546;SDS011;53400;50.364;14.874;2023-06-19T04:16:37;16.25;;;13.15;;
66546;SDS011;53400;50.364;14.874;2023-06-19T04:19:03;15.73;;;12.70;;
66546;SDS011;53400;50.364;14.874;2023-06-19T04:21:29;17.90;;;13.38;;
66546;SDS011;53400;50.364;14.874;2023-06-19T04:23:55;17.00;;;13.75;;
66546;SDS011;53400;50.364;14.874;2023-06-19T04:26:22;20.38;;;14.68;;
66546;SDS011;53400;50.364;14.874;2023-06-19T04:28:49;15.98;;;12.38;;
66546;SDS011;53400;50.364;14.874;2023-06-19T04:31:17;16.27;;;12.80;;
66546;SDS011;53400;50.364;14.874;2023-06-19T04:33:44;17.10;;;13.93;;
66546;SDS011;53400;50.364;14.874;2023-06-19T04:36:11;18.25;;;13.55;;
66546;SDS011;53400;50.364;14.874;2023-06-19T04:38:37;19.40;;;15.05;;
66546;SDS011;53400;50.364;14.874;2023-06-19T04:41:03;18.25;;;13.77;;
66546;SDS011;53400;50.364;14.874;2023-06-19T04:43:29;17.95;;;14.82;;
66546;SDS011;53400;50.364;14.874;2023-06-19T04:45:56;17.10;;;14.23;;
66546;SDS011;53400;50.364;14.874;2023-06-19T04:48:23;19.30;;;14.10;;
66546;SDS011;53400;50.364;14.874;2023-06-19T04:50:51;18.17;;;14.23;;
66546;SDS011;53400;50.364;14.874;2023-06-19T04:53:17;18.58;;;14.00;;
66546;SDS011;53400;50.364;14.874;2023-06-19T04:55:44;18.23;;;13.98;;
66546;SDS011;53400;50.364;14.874;2023-06-19T04:58:10;19.15;;;13.50;;
66546;SDS011;53400;50.364;14.874;2023-06-19T05:00:38;16.83;;;13.88;;
66546;SDS011;53400;50.364;14.874;2023-06-19T05:03:05;18.70;;;14.25;;
66546;SDS011;53400;50.364;14.874;2023-06-19T05:05:33;15.75;;;12.70;;
66546;SDS011;53400;50.364;14.874;2023-06-19T05:07:59;14.50;;;12.25;;
66546;SDS011;53400;50.364;14.874;2023-06-19T05:10:26;14.98;;;12.02;;
66546;SDS011;53400;50.364;14.874;2023-06-19T05:12:51;14.15;;;11.68;;
66546;SDS011;53400;50.364;14.874;2023-06-19T05:15:18;15.27;;;11.85;;
66546;SDS011;53400;50.364;14.874;2023-06-19T05:17:44;15.10;;;12.05;;
66546;SDS011;53400;50.364;14.874;2023-06-19T05:20:12;15.95;;;12.30;;
66546;SDS011;53400;50.364;14.874;2023-06-19T05:22:39;16.40;;;11.80;;
66546;SDS011;53400;50.364;14.874;2023-06-19T05:25:06;13.63;;;11.25;;
66546;SDS011;53400;50.364;14.874;2023-06-19T05:27:33;15.90;;;12.13;;
66546;SDS011;53400;50.364;14.874;2023-06-19T05:30:00;14.73;;;11.15;;
66546;SDS011;53400;50.364;14.874;2023-06-19T05:32:26;16.08;;;11.70;;
66546;SDS011;53400;50.364;14.874;2023-06-19T05:34:53;12.65;;;11.25;;
66546;SDS011;53400;50.364;14.874;2023-06-19T05:37:19;14.80;;;11.43;;
66546;SDS011;53400;50.364;14.874;2023-06-19T05:39:49;13.68;;;11.23;;
66546;SDS011;53400;50.364;14.874;2023-06-19T05:42:14;12.02;;;10.73;;
66546;SDS011;53400;50.364;14.874;2023-06-19T05:44:41;13.50;;;11.35;;
66546;SDS011;53400;50.364;14.874;2023-06-19T05:47:07;14.60;;;11.95;;
66546;SDS011;53400;50.364;14.874;2023-06-19T05:49:33;13.90;;;11.43;;
66546;SDS011;53400;50.364;14.874;2023-06-19T05:51:59;14.40;;;11.45;;
66546;SDS011;53400;50.364;14.874;2023-06-19T05:54:25;13.98;;;11.05;;
66546;SDS011;53400;50.364;14.874;2023-06-19T05:56:52;14.00;;;10.45;;
66546;SDS011;53400;50.364;14.874;2023-06-19T05:59:19;13.70;;;11.55;;
66546;SDS011;53400;50.364;14.874;2023-06-19T06:01:44;13.55;;;10.93;;
66546;SDS011;53400;50.364;14.874;2023-06-19T06:04:10;13.57;;;11.73;;
66546;SDS011;53400;50.364;14.874;2023-06-19T06:06:36;14.32;;;10.70;;
66546;SDS011;53400;50.364;14.874;2023-06-19T06:09:03;13.20;;;10.85;;
66546;SDS011;53400;50.364;14.874;2023-06-19T06:11:29;12.70;;;10.80;;
66546;SDS011;53400;50.364;14.874;2023-06-19T06:13:57;14.27;;;10.98;;
66546;SDS011;53400;50.364;14.874;2023-06-19T06:16:23;13.30;;;11.38;;
66546;SDS011;53400;50.364;14.874;2023-06-19T06:18:49;13.45;;;11.73;;
66546;SDS011;53400;50.364;14.874;2023-06-19T06:21:15;12.82;;;10.80;;
66546;SDS011;53400;50.364;14.874;2023-06-19T06:23:42;14.07;;;11.40;;
66546;SDS011;53400;50.364;14.874;2023-06-19T06:26:10;14.07;;;10.93;;
66546;SDS011;53400;50.364;14.874;2023-06-19T06:28:37;14.07;;;11.13;;
66546;SDS011;53400;50.364;14.874;2023-06-19T06:31:05;12.65;;;10.40;;
66546;SDS011;53400;50.364;14.874;2023-06-19T06:33:34;14.07;;;10.57;;
66546;SDS011;53400;50.364;14.874;2023-06-19T06:36:00;14.45;;;11.32;;
66546;SDS011;53400;50.364;14.874;2023-06-19T06:38:27;12.20;;;10.70;;
66546;SDS011;53400;50.364;14.874;2023-06-19T06:40:53;13.40;;;11.07;;
66546;SDS011;53400;50.364;14.874;2023-06-19T06:43:19;13.45;;;10.98;;
66546;SDS011;53400;50.364;14.874;2023-06-19T06:45:45;15.13;;;11.23;;
66546;SDS011;53400;50.364;14.874;2023-06-19T06:48:13;15.38;;;11.55;;
66546;SDS011;53400;50.364;14.874;2023-06-19T06:50:41;13.88;;;11.38;;
66546;SDS011;53400;50.364;14.874;2023-06-19T06:53:07;12.63;;;10.45;;
66546;SDS011;53400;50.364;14.874;2023-06-19T06:55:33;13.13;;;10.20;;
66546;SDS011;53400;50.364;14.874;2023-06-19T06:57:59;14.77;;;10.45;;
66546;SDS011;53400;50.364;14.874;2023-06-19T07:00:25;12.18;;;10.45;;
66546;SDS011;53400;50.364;14.874;2023-06-19T07:02:51;10.90;;;9.73;;
66546;SDS011;53400;50.364;14.874;2023-06-19T07:05:19;11.45;;;9.65;;
66546;SDS011;53400;50.364;14.874;2023-06-19T07:07:45;11.13;;;9.57;;
66546;SDS011;53400;50.364;14.874;2023-06-19T07:10:11;12.23;;;9.55;;
66546;SDS011;53400;50.364;14.874;2023-06-19T07:12:45;13.30;;;9.40;;
66546;SDS011;53400;50.364;14.874;2023-06-19T07:15:11;11.73;;;9.35;;
66546;SDS011;53400;50.364;14.874;2023-06-19T07:17:39;12.50;;;9.65;;
66546;SDS011;53400;50.364;14.874;2023-06-19T07:20:05;11.70;;;9.30;;
66546;SDS011;53400;50.364;14.874;2023-06-19T07:22:34;10.73;;;9.05;;
66546;SDS011;53400;50.364;14.874;2023-06-19T07:25:00;10.60;;;8.98;;
66546;SDS011;53400;50.364;14.874;2023-06-19T07:27:26;10.75;;;8.93;;
66546;SDS011;53400;50.364;14.874;2023-06-19T07:29:54;12.73;;;9.98;;
66546;SDS011;53400;50.364;14.874;2023-06-19T07:32:23;12.55;;;9.18;;
66546;SDS011;53400;50.364;14.874;2023-06-19T07:34:49;11.05;;;9.20;;
66546;SDS011;53400;50.364;14.874;2023-06-19T07:37:15;11.18;;;8.80;;
66546;SDS011;53400;50.364;14.874;2023-06-19T07:39:47;12.40;;;9.77;;
66546;SDS011;53400;50.364;14.874;2023-06-19T07:42:15;11.70;;;9.20;;
66546;SDS011;53400;50.364;14.874;2023-06-19T07:44:42;11.38;;;9.68;;
66546;SDS011;53400;50.364;14.874;2023-06-19T07:47:09;9.88;;;8.77;;
66546;SDS011;53400;50.364;14.874;2023-06-19T07:49:35;10.80;;;8.93;;
66546;SDS011;53400;50.364;14.874;2023-06-19T07:52:03;10.52;;;8.80;;
66546;SDS011;53400;50.364;14.874;2023-06-19T07:54:30;10.13;;;8.48;;
66546;SDS011;53400;50.364;14.874;2023-06-19T07:56:59;9.93;;;8.85;;
66546;SDS011;53400;50.364;14.874;2023-06-19T07:59:25;11.68;;;8.88;;
66546;SDS011;53400;50.364;14.874;2023-06-19T08:01:51;11.05;;;9.45;;
66546;SDS011;53400;50.364;14.874;2023-06-19T08:04:18;12.07;;;9.52;;
66546;SDS011;53400;50.364;14.874;2023-06-19T08:06:44;11.45;;;9.40;;
66546;SDS011;53400;50.364;14.874;2023-06-19T08:09:10;12.25;;;10.02;;
66546;SDS011;53400;50.364;14.874;2023-06-19T08:11:37;10.43;;;9.07;;
66546;SDS011;53400;50.364;14.874;2023-06-19T08:14:04;11.00;;;9.60;;
66546;SDS011;53400;50.364;14.874;2023-06-19T08:16:30;10.93;;;9.13;;
66546;SDS011;53400;50.364;14.874;2023-06-19T08:18:57;13.18;;;10.15;;
66546;SDS011;53400;50.364;14.874;2023-06-19T08:21:23;14.30;;;10.15;;
66546;SDS011;53400;50.364;14.874;2023-06-19T08:23:50;12.68;;;9.73;;
66546;SDS011;53400;50.364;14.874;2023-06-19T08:26:16;11.98;;;9.82;;
66546;SDS011;53400;50.364;14.874;2023-06-19T08:28:43;10.43;;;9.32;;
66546;SDS011;53400;50.364;14.874;2023-06-19T08:31:12;11.25;;;9.75;;
66546;SDS011;53400;50.364;14.874;2023-06-19T08:33:38;11.82;;;10.25;;
66546;SDS011;53400;50.364;14.874;2023-06-19T08:36:05;13.40;;;9.77;;
66546;SDS011;53400;50.364;14.874;2023-06-19T08:38:31;11.27;;;9.23;;
66546;SDS011;53400;50.364;14.874;2023-06-19T08:40:58;14.15;;;9.65;;
66546;SDS011;53400;50.364;14.874;2023-06-19T08:43:24;10.95;;;9.00;;
66546;SDS011;53400;50.364;14.874;2023-06-19T08:46:00;12.10;;;9.60;;
66546;SDS011;53400;50.364;14.874;2023-06-19T08:48:35;12.02;;;10.20;;
66546;SDS011;53400;50.364;14.874;2023-06-19T08:51:02;11.02;;;9.82;;
66546;SDS011;53400;50.364;14.874;2023-06-19T08:53:34;14.00;;;11.20;;
66546;SDS011;53400;50.364;14.874;2023-06-19T08:56:02;13.07;;;10.80;;
66546;SDS011;53400;50.364;14.874;2023-06-19T08:58:28;12.88;;;9.70;;
66546;SDS011;53400;50.364;14.874;2023-06-19T09:00:57;12.45;;;9.93;;
66546;SDS011;53400;50.364;14.874;2023-06-19T09:03:23;11.88;;;9.95;;
66546;SDS011;53400;50.364;14.874;2023-06-19T09:05:51;11.30;;;10.10;;
66546;SDS011;53400;50.364;14.874;2023-06-19T09:08:17;11.35;;;9.77;;
66546;SDS011;53400;50.364;14.874;2023-06-19T09:10:54;11.90;;;10.68;;
66546;SDS011;53400;50.364;14.874;2023-06-19T09:13:21;13.50;;;10.57;;
66546;SDS011;53400;50.364;14.874;2023-06-19T09:15:48;13.35;;;10.35;;
66546;SDS011;53400;50.364;14.874;2023-06-19T09:18:23;12.40;;;10.32;;
66546;SDS011;53400;50.364;14.874;2023-06-19T09:20:53;12.18;;;10.20;;
66546;SDS011;53400;50.364;14.874;2023-06-19T09:23:19;11.98;;;10.13;;
66546;SDS011;53400;50.364;14.874;2023-06-19T09:25:46;11.52;;;10.32;;
66546;SDS011;53400;50.364;14.874;2023-06-19T09:28:19;12.38;;;10.07;;
66546;SDS011;53400;50.364;14.874;2023-06-19T09:30:51;11.73;;;10.10;;
66546;SDS011;53400;50.364;14.874;2023-06-19T09:33:18;11.23;;;9.35;;
66546;SDS011;53400;50.364;14.874;2023-06-19T09:35:45;11.55;;;9.20;;
66546;SDS011;53400;50.364;14.874;2023-06-19T09:38:13;11.48;;;9.70;;
66546;SDS011;53400;50.364;14.874;2023-06-19T09:40:42;11.82;;;9.65;;
66546;SDS011;53400;50.364;14.874;2023-06-19T09:43:09;14.07;;;10.35;;
66546;SDS011;53400;50.364;14.874;2023-06-19T09:45:35;12.02;;;9.07;;
66546;SDS011;53400;50.364;14.874;2023-06-19T09:48:02;11.65;;;9.93;;
66546;SDS011;53400;50.364;14.874;2023-06-19T09:50:32;10.98;;;9.65;;
66546;SDS011;53400;50.364;14.874;2023-06-19T09:52:59;12.20;;;9.70;;
66546;SDS011;53400;50.364;14.874;2023-06-19T09:55:28;10.35;;;9.18;;
66546;SDS011;53400;50.364;14.874;2023-06-19T09:57:56;11.63;;;10.23;;
66546;SDS011;53400;50.364;14.874;2023-06-19T10:00:23;11.98;;;9.73;;
66546;SDS011;53400;50.364;14.874;2023-06-19T10:02:56;12.60;;;9.70;;
66546;SDS011;53400;50.364;14.874;2023-06-19T10:05:30;12.70;;;10.25;;
66546;SDS011;53400;50.364;14.874;2023-06-19T10:07:57;12.27;;;10.30;;
66546;SDS011;53400;50.364;14.874;2023-06-19T10:10:28;11.48;;;10.05;;
66546;SDS011;53400;50.364;14.874;2023-06-19T10:12:54;12.95;;;10.30;;
66546;SDS011;53400;50.364;14.874;2023-06-19T10:15:24;11.70;;;9.73;;
66546;SDS011;53400;50.364;14.874;2023-06-19T10:17:51;11.10;;;9.70;;
66546;SDS011;53400;50.364;14.874;2023-06-19T10:20:22;12.10;;;10.00;;
66546;SDS011;53400;50.364;14.874;2023-06-19T10:25:21;13.27;;;9.55;;
66546;SDS011;53400;50.364;14.874;2023-06-19T10:27:50;10.98;;;9.70;;
66546;SDS011;53400;50.364;14.874;2023-06-19T10:30:18;10.93;;;9.57;;
66546;SDS011;53400;50.364;14.874;2023-06-19T10:32:45;12.70;;;9.85;;
66546;SDS011;53400;50.364;14.874;2023-06-19T10:35:15;11.20;;;9.57;;
66546;SDS011;53400;50.364;14.874;2023-06-19T10:37:42;10.65;;;9.55;;
66546;SDS011;53400;50.364;14.874;2023-06-19T10:40:09;12.07;;;9.38;;
66546;SDS011;53400;50.364;14.874;2023-06-19T10:42:36;9.82;;;8.75;;
66546;SDS011;53400;50.364;14.874;2023-06-19T10:45:04;11.38;;;9.10;;
66546;SDS011;53400;50.364;14.874;2023-06-19T10:47:35;10.50;;;8.77;;
66546;SDS011;53400;50.364;14.874;2023-06-19T10:50:03;11.02;;;9.82;;
66546;SDS011;53400;50.364;14.874;2023-06-19T10:52:31;11.18;;;9.52;;
66546;SDS011;53400;50.364;14.874;2023-06-19T10:54:57;10.32;;;9.13;;
66546;SDS011;53400;50.364;14.874;2023-06-19T10:57:27;9.60;;;8.60;;
66546;SDS011;53400;50.364;14.874;2023-06-19T10:59:54;11.10;;;9.77;;
66546;SDS011;53400;50.364;14.874;2023-06-19T11:02:22;10.95;;;9.40;;
66546;SDS011;53400;50.364;14.874;2023-06-19T11:04:53;11.13;;;9.50;;
66546;SDS011;53400;50.364;14.874;2023-06-19T11:07:20;12.10;;;10.55;;
66546;SDS011;53400;50.364;14.874;2023-06-19T11:09:48;11.48;;;9.98;;
66546;SDS011;53400;50.364;14.874;2023-06-19T11:12:18;10.52;;;9.38;;
66546;SDS011;53400;50.364;14.874;2023-06-19T11:14:47;11.23;;;9.70;;
66546;SDS011;53400;50.364;14.874;2023-06-19T11:17:14;10.75;;;9.73;;
66546;SDS011;53400;50.364;14.874;2023-06-19T11:19:42;10.82;;;9.70;;
66546;SDS011;53400;50.364;14.874;2023-06-19T11:22:10;13.52;;;9.90;;
66546;SDS011;53400;50.364;14.874;2023-06-19T11:24:36;10.85;;;9.75;;
66546;SDS011;53400;50.364;14.874;2023-06-19T11:27:03;11.18;;;9.98;;
66546;SDS011;53400;50.364;14.874;2023-06-19T11:29:31;10.77;;;9.77;;
66546;SDS011;53400;50.364;14.874;2023-06-19T11:32:08;10.95;;;9.85;;
66546;SDS011;53400;50.364;14.874;2023-06-19T11:34:37;11.52;;;9.30;;
66546;SDS011;53400;50.364;14.874;2023-06-19T11:37:11;10.68;;;9.68;;
66546;SDS011;53400;50.364;14.874;2023-06-19T11:39:38;11.52;;;10.20;;
66546;SDS011;53400;50.364;14.874;2023-06-19T11:42:06;10.50;;;9.40;;
66546;SDS011;53400;50.364;14.874;2023-06-19T11:44:33;10.55;;;9.48;;
66546;SDS011;53400;50.364;14.874;2023-06-19T11:46:59;11.25;;;9.68;;
66546;SDS011;53400;50.364;14.874;2023-06-19T11:49:26;10.50;;;9.35;;
66546;SDS011;53400;50.364;14.874;2023-06-19T11:51:53;11.13;;;10.02;;
66546;SDS011;53400;50.364;14.874;2023-06-19T11:54:21;10.02;;;9.02;;
66546;SDS011;53400;50.364;14.874;2023-06-19T11:56:47;11.07;;;9.98;;
66546;SDS011;53400;50.364;14.874;2023-06-19T11:59:14;10.95;;;9.82;;
66546;SDS011;53400;50.364;14.874;2023-06-19T12:01:40;10.60;;;9.50;;
66546;SDS011;53400;50.364;14.874;2023-06-19T12:04:06;11.43;;;10.18;;
66546;SDS011;53400;50.364;14.874;2023-06-19T12:06:32;11.38;;;10.27;;
66546;SDS011;53400;50.364;14.874;2023-06-19T12:09:01;10.40;;;9.30;;
66546;SDS011;53400;50.364;14.874;2023-06-19T12:11:31;10.25;;;9.25;;
66546;SDS011;53400;50.364;14.874;2023-06-19T12:13:58;12.30;;;11.10;;
66546;SDS011;53400;50.364;14.874;2023-06-19T12:16:24;12.20;;;11.00;;
66546;SDS011;53400;50.364;14.874;2023-06-19T12:18:51;13.60;;;10.57;;
66546;SDS011;53400;50.364;14.874;2023-06-19T12:21:18;11.38;;;10.02;;
66546;SDS011;53400;50.364;14.874;2023-06-19T12:23:45;11.25;;;10.15;;
66546;SDS011;53400;50.364;14.874;2023-06-19T12:26:13;11.52;;;10.35;;
66546;SDS011;53400;50.364;14.874;2023-06-19T12:28:45;10.45;;;9.35;;
66546;SDS011;53400;50.364;14.874;2023-06-19T12:31:11;11.82;;;10.02;;
66546;SDS011;53400;50.364;14.874;2023-06-19T12:33:39;10.07;;;9.07;;
66546;SDS011;53400;50.364;14.874;2023-06-19T12:36:11;10.60;;;9.50;;
66546;SDS011;53400;50.364;14.874;2023-06-19T12:38:41;10.95;;;9.85;;
66546;SDS011;53400;50.364;14.874;2023-06-19T12:41:11;10.93;;;9.82;;
66546;SDS011;53400;50.364;14.874;2023-06-19T12:43:40;10.52;;;9.52;;
66546;SDS011;53400;50.364;14.874;2023-06-19T12:46:07;11.40;;;9.65;;
66546;SDS011;53400;50.364;14.874;2023-06-19T12:48:33;10.60;;;9.02;;
66546;SDS011;53400;50.364;14.874;2023-06-19T12:50:59;12.23;;;9.57;;
66546;SDS011;53400;50.364;14.874;2023-06-19T12:53:26;10.98;;;9.88;;
66546;SDS011;53400;50.364;14.874;2023-06-19T12:55:56;11.10;;;9.68;;
66546;SDS011;53400;50.364;14.874;2023-06-19T12:58:23;10.48;;;9.43;;
66546;SDS011;53400;50.364;14.874;2023-06-19T13:00:49;11.00;;;9.35;;
66546;SDS011;53400;50.364;14.874;2023-06-19T13:03:20;10.98;;;9.82;;
66546;SDS011;53400;50.364;14.874;2023-06-19T13:05:47;10.32;;;9.25;;
66546;SDS011;53400;50.364;14.874;2023-06-19T13:08:13;10.80;;;9.70;;
66546;SDS011;53400;50.364;14.874;2023-06-19T13:10:39;10.85;;;9.75;;
66546;SDS011;53400;50.364;14.874;2023-06-19T13:13:06;10.90;;;9.80;;
66546;SDS011;53400;50.364;14.874;2023-06-19T13:15:32;10.45;;;9.43;;
66546;SDS011;53400;50.364;14.874;2023-06-19T13:18:01;10.18;;;9.15;;
66546;SDS011;53400;50.364;14.874;2023-06-19T13:20:29;10.05;;;9.05;;
66546;SDS011;53400;50.364;14.874;2023-06-19T13:22:55;10.40;;;9.35;;
66546;SDS011;53400;50.364;14.874;2023-06-19T13:25:21;11.45;;;9.57;;
66546;SDS011;53400;50.364;14.874;2023-06-19T13:27:47;10.30;;;9.30;;
66546;SDS011;53400;50.364;14.874;2023-06-19T13:30:13;10.05;;;9.05;;
66546;SDS011;53400;50.364;14.874;2023-06-19T13:32:42;10.02;;;8.95;;
66546;SDS011;53400;50.364;14.874;2023-06-19T13:35:09;10.73;;;9.15;;
66546;SDS011;53400;50.364;14.874;2023-06-19T13:37:37;10.55;;;9.23;;
66546;SDS011;53400;50.364;14.874;2023-06-19T13:40:06;10.05;;;9.02;;
66546;SDS011;53400;50.364;14.874;2023-06-19T13:42:33;10.23;;;8.75;;
66546;SDS011;53400;50.364;14.874;2023-06-19T13:45:04;10.07;;;8.60;;
66546;SDS011;53400;50.364;14.874;2023-06-19T13:47:31;11.13;;;9.60;;
66546;SDS011;53400;50.364;14.874;2023-06-19T13:49:57;10.10;;;8.98;;
66546;SDS011;53400;50.364;14.874;2023-06-19T13:52:23;10.45;;;9.00;;
66546;SDS011;53400;50.364;14.874;2023-06-19T13:54:51;9.75;;;8.75;;
66546;SDS011;53400;50.364;14.874;2023-06-19T13:57:17;10.57;;;9.50;;
66546;SDS011;53400;50.364;14.874;2023-06-19T13:59:43;9.68;;;8.70;;
66546;SDS011;53400;50.364;14.874;2023-06-19T14:02:09;10.00;;;8.95;;
66546;SDS011;53400;50.364;14.874;2023-06-19T14:04:38;9.80;;;8.80;;
66546;SDS011;53400;50.364;14.874;2023-06-19T14:07:05;9.95;;;8.95;;
66546;SDS011;53400;50.364;14.874;2023-06-19T14:09:31;9.68;;;8.60;;
66546;SDS011;53400;50.364;14.874;2023-06-19T14:11:59;9.77;;;8.77;;
66546;SDS011;53400;50.364;14.874;2023-06-19T14:14:25;10.23;;;8.52;;
66546;SDS011;53400;50.364;14.874;2023-06-19T14:16:52;10.23;;;9.15;;